Time;durP1;ratioP1;P1;durP2;ratioP2;P2;SDS_P1;SDS_P2;PMS_P1;PMS_P2;Temp;Humidity;BMP_temperature;BMP_pressure;BME280_temperature;BME280_humidity;BME280_pressure;Samples;Min_cycle;Max_cycle;Signal;HPM_P1;HPM_P2
2022/01/30 00:02:04;;;;;;;17.92;7.65;;;;;;;-3.27;98.41;99202.47;1693353;83;21082;-72
2022/01/30 00:04:31;;;;;;;16.32;7.53;;;;;;;-3.26;98.64;99192.62;1694179;83;21536;-72
2022/01/30 00:06:57;;;;;;;19.77;8.28;;;;;;;-3.27;98.88;99187.87;1691401;83;21984;-71
2022/01/30 00:09:25;;;;;;;19.17;8.50;;;;;;;-3.24;99.25;99183.19;1693788;83;21049;-71
2022/01/30 00:11:57;;;;;;;30.25;11.05;;;;;;;-3.22;100.00;99170.74;1693486;83;21130;-72
2022/01/30 00:14:22;;;;;;;18.70;6.97;;;;;;;-3.22;99.22;99173.32;1701789;83;21418;-71
2022/01/30 00:16:57;;;;;;;18.60;7.80;;;;;;;-3.22;98.68;99163.42;1697917;83;21607;-73
2022/01/30 00:19:31;;;;;;;24.67;10.63;;;;;;;-3.20;99.53;99147.55;1697053;83;21119;-71
2022/01/30 00:21:58;;;;;;;16.63;7.23;;;;;;;-3.21;99.43;99131.25;1692209;83;22145;-71
2022/01/30 00:24:32;;;;;;;18.20;7.80;;;;;;;-3.19;98.73;99132.11;1692625;83;21076;-70
2022/01/30 00:26:47;;;;;;;16.87;7.97;;;;;;;-3.19;99.17;99122.25;1691302;83;21085;-70
2022/01/30 00:29:14;;;;;;;16.67;7.78;;;;;;;-3.18;99.26;99107.21;1694004;83;21131;-70
2022/01/30 00:31:42;;;;;;;13.60;5.85;;;;;;;-3.17;98.92;99104.66;1693663;83;21157;-71
2022/01/30 00:34:10;;;;;;;20.25;9.10;;;;;;;-3.17;99.03;99094.78;1698216;83;21048;-69
2022/01/30 00:36:37;;;;;;;22.73;9.67;;;;;;;-3.14;100.00;99087.48;1698112;83;21588;-71
2022/01/30 00:39:04;;;;;;;18.65;6.53;;;;;;;-3.12;99.33;99083.20;1694314;83;21119;-72
2022/01/30 00:41:31;;;;;;;23.30;7.55;;;;;;;-3.12;99.54;99076.33;1697979;83;21056;-70
2022/01/30 00:43:58;;;;;;;19.35;8.93;;;;;;;-3.11;99.35;99063.02;1698083;83;21266;-72
2022/01/30 00:46:25;;;;;;;16.23;6.15;;;;;;;-3.10;99.22;99058.31;1695538;83;21124;-71
2022/01/30 00:48:52;;;;;;;14.83;6.33;;;;;;;-3.09;99.57;99054.42;1693761;83;21061;-71
2022/01/30 00:51:18;;;;;;;21.12;8.25;;;;;;;-3.08;98.72;99037.25;1694003;83;21113;-71
2022/01/30 00:56:32;;;;;;;16.10;5.90;;;;;;;-2.98;99.02;99017.09;1793723;79;22662;-71
2022/01/30 00:58:58;;;;;;;23.07;7.55;;;;;;;-3.02;98.42;99003.78;1753083;80;21499;-72
2022/01/30 01:01:24;;;;;;;21.05;9.15;;;;;;;-3.00;98.44;99011.08;1750939;81;21103;-71
2022/01/30 01:03:51;;;;;;;20.55;8.33;;;;;;;-2.98;98.27;98998.62;1755017;81;21093;-73
2022/01/30 01:09:22;;;;;;;19.15;9.73;;;;;;;-2.97;98.66;98981.44;1755597;81;21699;-73
2022/01/30 01:25:08;;;;;;;18.92;8.65;;;;;;;-2.92;97.87;98937.23;1723966;82;21061;-71
2022/01/30 01:27:34;;;;;;;11.03;6.17;;;;;;;-2.90;97.78;98927.75;1725524;83;21130;-72
2022/01/30 01:30:01;;;;;;;10.18;3.65;;;;;;;-2.88;97.66;98909.73;1725378;82;21117;-70
2022/01/30 01:32:27;;;;;;;20.23;9.03;;;;;;;-2.88;97.58;98908.00;1725411;82;21068;-69
2022/01/30 01:34:54;;;;;;;11.48;4.95;;;;;;;-2.86;97.73;98895.13;1725076;82;22214;-70
2022/01/30 01:37:21;;;;;;;15.98;7.40;;;;;;;-2.83;97.72;98893.41;1726688;81;21066;-70
2022/01/30 01:39:47;;;;;;;11.48;5.45;;;;;;;-2.83;97.67;98880.94;1755765;81;21140;-71
2022/01/30 01:42:15;;;;;;;14.93;6.55;;;;;;;-2.83;96.84;98866.77;1755276;81;21345;-71
2022/01/30 01:44:48;;;;;;;22.77;8.43;;;;;;;-2.82;97.07;98873.66;1755344;81;21552;-67
2022/01/30 01:47:12;;;;;;;17.25;6.15;;;;;;;-2.79;97.57;98862.89;1727656;81;21124;-70
2022/01/30 01:49:41;;;;;;;17.70;6.03;;;;;;;-2.75;97.13;98867.17;1725822;83;21054;-73
2022/01/30 01:54:55;;;;;;;22.22;8.80;;;;;;;-2.73;95.84;98846.56;1728839;82;21030;-70
2022/01/30 01:57:24;;;;;;;19.98;8.45;;;;;;;-2.69;96.81;98843.52;1712837;83;21062;-72
2022/01/30 01:59:53;;;;;;;14.77;6.43;;;;;;;-2.65;97.19;98845.23;1716947;81;21057;-72
2022/01/30 02:02:43;;;;;;;12.78;5.72;;;;;;;-2.64;95.50;98842.66;1712897;83;21077;-73
2022/01/30 02:05:09;;;;;;;15.10;5.83;;;;;;;-2.62;96.00;98837.50;1677689;85;22016;-72
2022/01/30 02:10:07;;;;;;;11.68;5.60;;;;;;;-2.62;95.78;98823.33;1678012;85;22135;-71
2022/01/30 02:12:44;;;;;;;14.78;6.53;;;;;;;-2.60;97.23;98828.02;1635817;84;21041;-70
2022/01/30 02:15:33;;;;;;;9.53;4.42;;;;;;;-2.61;96.52;98818.58;1693020;84;21549;-71
2022/01/30 02:26:00;;;;;;;12.98;4.35;;;;;;;-2.75;100.00;98780.84;1705999;84;21470;-72
2022/01/30 02:28:28;;;;;;;9.78;4.75;;;;;;;-2.84;100.00;98770.59;1706559;83;21055;-73
2022/01/30 02:31:03;;;;;;;10.53;4.25;;;;;;;-2.90;100.00;98774.47;1731486;82;21134;-72
2022/01/30 02:33:24;;;;;;;12.98;5.83;;;;;;;-2.98;100.00;98765.50;1738674;81;21098;-71
2022/01/30 02:35:50;;;;;;;17.00;5.97;;;;;;;-3.00;100.00;98758.64;1710692;83;21119;-71
2022/01/30 02:38:22;;;;;;;9.65;4.75;;;;;;;-3.05;100.00;98734.63;1710572;83;21064;-73
2022/01/30 02:40:51;;;;;;;11.28;4.90;;;;;;;-3.09;100.00;98730.35;1710495;82;21064;-72
2022/01/30 02:43:21;;;;;;;9.08;4.45;;;;;;;-3.14;100.00;98711.50;1710669;83;21536;-70
2022/01/30 02:45:59;;;;;;;11.30;5.05;;;;;;;-3.17;100.00;98713.22;1710525;83;21048;-74
2022/01/30 02:48:18;;;;;;;9.80;3.77;;;;;;;-3.20;100.00;98695.22;1709825;83;21071;-70
2022/01/30 02:51:07;;;;;;;10.13;4.53;;;;;;;-3.28;100.00;98684.09;1710531;83;21079;-69
2022/01/30 02:53:31;;;;;;;20.92;9.18;;;;;;;-3.32;100.00;98677.23;1710213;83;21103;-70
2022/01/30 02:55:57;;;;;;;19.73;7.67;;;;;;;-3.37;100.00;98660.96;1709608;82;21125;-69
2022/01/30 02:58:23;;;;;;;20.32;7.72;;;;;;;-3.42;100.00;98652.41;1710571;83;21071;-69
2022/01/30 03:00:50;;;;;;;16.43;8.27;;;;;;;-3.45;100.00;98652.41;1710575;83;21055;-70
2022/01/30 03:03:18;;;;;;;13.78;6.00;;;;;;;-3.50;100.00;98640.84;1710334;83;21604;-68
2022/01/30 03:05:45;;;;;;;11.00;6.37;;;;;;;-3.52;100.00;98637.86;1710719;83;21056;-72
2022/01/30 03:08:12;;;;;;;10.73;5.13;;;;;;;-3.56;100.00;98624.16;1710968;82;21619;-73
2022/01/30 03:10:41;;;;;;;15.50;6.00;;;;;;;-3.57;100.00;98625.45;1710537;82;21028;-72
2022/01/30 03:13:08;;;;;;;10.87;4.47;;;;;;;-3.56;100.00;98621.59;1724725;82;21126;-70
2022/01/30 03:15:35;;;;;;;10.30;5.00;;;;;;;-3.61;100.00;98606.17;1742000;81;21075;-70
2022/01/30 03:18:01;;;;;;;13.30;5.03;;;;;;;-3.59;100.00;98595.44;1742157;82;21869;-71
2022/01/30 03:20:29;;;;;;;8.13;4.40;;;;;;;-3.61;100.00;98601.02;1742396;82;21124;-72
2022/01/30 03:22:55;;;;;;;8.27;3.97;;;;;;;-3.61;100.00;98593.30;1747215;82;21005;-72
2022/01/30 03:25:22;;;;;;;8.43;4.00;;;;;;;-3.59;100.00;98595.44;1742932;82;21136;-72
2022/01/30 03:27:53;;;;;;;9.87;5.17;;;;;;;-3.61;100.00;98568.86;1747102;82;21044;-71
2022/01/30 03:30:28;;;;;;;14.30;5.97;;;;;;;-3.60;100.00;98561.55;1747375;82;21531;-73
2022/01/30 03:32:57;;;;;;;10.33;5.13;;;;;;;-3.60;100.00;98555.11;1740589;82;21104;-73
2022/01/30 03:35:24;;;;;;;8.63;3.47;;;;;;;-3.61;100.00;98545.70;1747255;82;21583;-72
2022/01/30 03:37:51;;;;;;;16.12;4.17;;;;;;;-3.61;100.00;98550.84;1747071;82;21048;-73
2022/01/30 03:40:19;;;;;;;12.80;5.30;;;;;;;-3.60;100.00;98540.12;1747276;82;21001;-73
2022/01/30 03:42:45;;;;;;;7.63;3.20;;;;;;;-3.59;100.00;98533.69;1746957;82;21016;-72
2022/01/30 03:45:13;;;;;;;9.50;4.83;;;;;;;-3.56;100.00;98522.52;1747470;82;21212;-72
2022/01/30 03:47:40;;;;;;;7.97;3.50;;;;;;;-3.55;100.00;98519.50;1747001;82;20997;-73
2022/01/30 03:50:08;;;;;;;11.67;3.63;;;;;;;-3.54;100.00;98502.78;1742632;82;21052;-72
2022/01/30 03:52:36;;;;;;;8.80;4.15;;;;;;;-3.50;100.00;98501.02;1742401;82;21046;-72
2022/01/30 03:55:03;;;;;;;11.05;5.03;;;;;;;-3.49;100.00;98496.31;1741629;81;21629;-72
2022/01/30 03:57:30;;;;;;;6.70;3.73;;;;;;;-3.47;100.00;98490.73;1753618;81;21596;-71
2022/01/30 03:59:56;;;;;;;10.20;4.80;;;;;;;-3.45;100.00;98480.84;1754976;81;21065;-70
2022/01/30 04:02:23;;;;;;;7.70;4.03;;;;;;;-3.43;100.00;98475.66;1738234;81;21100;-70
2022/01/30 04:04:50;;;;;;;8.55;5.33;;;;;;;-3.43;100.00;98475.66;1755131;81;21101;-70
2022/01/30 04:07:17;;;;;;;13.53;5.77;;;;;;;-3.41;100.00;98463.20;1755204;80;21023;-70
2022/01/30 04:09:58;;;;;;;8.10;5.10;;;;;;;-3.39;100.00;98473.05;1708048;83;22086;-70
2022/01/30 04:12:28;;;;;;;12.77;3.93;;;;;;;-3.40;100.00;98451.20;1689433;84;21072;-70
2022/01/30 04:15:05;;;;;;;6.30;3.43;;;;;;;-3.38;100.00;98455.91;1689803;84;21692;-72
2022/01/30 04:17:37;;;;;;;7.70;3.03;;;;;;;-3.38;100.00;98443.04;1687401;84;21546;-72
2022/01/30 04:20:08;;;;;;;7.27;4.10;;;;;;;-3.38;100.00;98436.17;1689764;84;21076;-70
2022/01/30 04:22:36;;;;;;;5.70;3.33;;;;;;;-3.36;100.00;98447.72;1685096;84;21123;-71
2022/01/30 04:25:07;;;;;;;13.17;5.10;;;;;;;-3.33;100.00;98414.69;1688193;84;21544;-71
2022/01/30 04:27:52;;;;;;;13.17;5.17;;;;;;;-3.31;100.00;98410.35;1690208;84;21052;-70
2022/01/30 04:30:31;;;;;;;7.93;4.53;;;;;;;-3.30;100.00;98407.77;1689366;84;21110;-71
2022/01/30 04:33:06;;;;;;;8.83;4.23;;;;;;;-3.29;100.00;98409.50;1689664;84;21131;-70
2022/01/30 04:35:53;;;;;;;6.10;3.83;;;;;;;-3.29;100.00;98383.75;1690264;84;21145;-72
2022/01/30 04:38:55;;;;;;;6.63;4.20;;;;;;;-3.29;100.00;98394.05;1688977;84;21167;-72
2022/01/30 04:41:37;;;;;;;7.13;4.63;;;;;;;-3.24;100.00;98363.96;1685037;83;21652;-71
2022/01/30 05:01:17;;;;;;;7.97;3.43;;;;;;;-3.19;100.00;98333.86;1692940;82;21056;-72
2022/01/30 05:06:42;;;;;;;6.60;3.62;;;;;;;-3.20;100.00;98329.59;1709265;82;21513;-75
2022/01/30 05:09:01;;;;;;;8.03;3.30;;;;;;;-3.22;100.00;98318.88;1701451;83;21069;-66
2022/01/30 05:11:42;;;;;;;9.43;4.87;;;;;;;-3.23;100.00;98313.31;1675275;85;21085;-68
2022/01/30 05:14:24;;;;;;;10.30;4.20;;;;;;;-3.24;100.00;98299.59;1675068;84;21117;-66
2022/01/30 05:16:57;;;;;;;8.65;4.00;;;;;;;-3.25;100.00;98294.02;1655245;85;21337;-67
2022/01/30 05:19:30;;;;;;;8.98;4.50;;;;;;;-3.28;100.00;98282.47;1747450;81;21085;-69
2022/01/30 05:22:00;;;;;;;10.20;4.45;;;;;;;-3.31;100.00;98287.66;1684101;84;21135;-68
2022/01/30 05:24:30;;;;;;;8.73;3.52;;;;;;;-3.34;100.00;98283.81;1682427;85;21542;-67
2022/01/30 05:27:02;;;;;;;8.03;3.13;;;;;;;-3.37;100.00;98272.28;1719109;83;21034;-66
2022/01/30 05:29:34;;;;;;;13.03;6.20;;;;;;;-3.41;100.00;98273.17;1746310;81;21117;-66
2022/01/30 05:32:16;;;;;;;5.87;3.73;;;;;;;-3.43;100.00;98269.76;1736466;81;21129;-66
2022/01/30 05:34:46;;;;;;;12.25;4.87;;;;;;;-3.43;100.00;98260.75;1728042;81;21648;-66
2022/01/30 05:37:17;;;;;;;8.80;4.50;;;;;;;-3.48;100.00;98249.22;1732212;82;21092;-67
2022/01/30 05:40:03;;;;;;;7.03;4.12;;;;;;;-3.43;100.00;98240.16;1703219;82;21060;-66
2022/01/30 05:42:35;;;;;;;;;;;;;;;-3.49;100.00;98244.11;1694306;82;21223;-65
2022/01/30 05:45:20;;;;;;;12.77;5.33;;;;;;;-3.49;100.00;98244.11;1684974;84;21860;-66
2022/01/30 05:47:55;;;;;;;11.33;5.97;;;;;;;-3.50;100.00;98238.53;1671159;85;21055;-66
2022/01/30 05:50:26;;;;;;;7.13;3.87;;;;;;;-3.51;100.00;98232.98;1682675;85;21052;-67
2022/01/30 05:52:54;;;;;;;12.23;5.10;;;;;;;-3.53;100.00;98227.00;1683754;85;21036;-67
2022/01/30 05:55:35;;;;;;;;;;;;;;;-3.54;100.00;98226.15;1696125;83;21142;-67
2022/01/30 05:58:02;;;;;;;10.50;4.53;;;;;;;-3.55;100.00;98231.30;1697777;84;20158;-68
2022/01/30 06:00:31;;;;;;;9.73;5.53;;;;;;;-3.57;100.00;98212.01;1697169;83;21053;-66
2022/01/30 06:02:58;;;;;;;11.63;5.70;;;;;;;-3.56;100.00;98212.88;1680792;84;21095;-66
2022/01/30 06:05:25;;;;;;;10.27;5.10;;;;;;;-3.56;100.00;98216.30;1706086;84;21025;-66
2022/01/30 06:07:54;;;;;;;10.87;5.80;;;;;;;-3.57;100.00;98200.88;1687899;83;21125;-67
2022/01/30 06:10:25;;;;;;;7.33;4.50;;;;;;;-3.57;100.00;98212.45;1677659;85;21082;-67
2022/01/30 06:12:52;;;;;;;17.00;7.58;;;;;;;-3.56;100.00;98203.88;1691765;83;21041;-69
2022/01/30 06:15:19;;;;;;;17.40;7.67;;;;;;;-3.52;100.00;98196.52;1725310;82;21047;-67
2022/01/30 06:17:47;;;;;;;13.90;7.73;;;;;;;-3.51;100.00;98195.23;1725663;82;20990;-68
2022/01/30 06:20:33;;;;;;;15.27;7.03;;;;;;;-3.50;100.00;98192.21;1744338;80;21206;-67
2022/01/30 06:23:08;;;;;;;16.37;7.50;;;;;;;-3.50;100.00;98188.34;1682597;83;21037;-68
2022/01/30 06:25:53;;;;;;;12.37;6.90;;;;;;;-3.49;100.00;98178.05;1711713;83;21070;-67
2022/01/30 06:28:23;;;;;;;15.17;7.73;;;;;;;-3.46;100.00;98177.16;1671688;83;21124;-67
2022/01/30 06:30:51;;;;;;;9.30;5.13;;;;;;;-3.44;100.00;98170.27;1717446;83;21010;-67
2022/01/30 06:33:36;;;;;;;18.23;9.07;;;;;;;-3.43;100.00;98161.67;1719917;83;21157;-66
2022/01/30 06:36:21;;;;;;;16.60;6.90;;;;;;;-3.40;100.00;98174.52;1730002;81;21062;-66
2022/01/30 06:38:53;;;;;;;12.87;7.33;;;;;;;-3.35;100.00;98161.15;1701492;82;21017;-67
2022/01/30 06:41:28;;;;;;;15.13;6.83;;;;;;;-3.28;100.00;98162.77;1689944;82;21091;-67
2022/01/30 06:44:13;;;;;;;14.17;6.83;;;;;;;-3.23;100.00;98145.53;1685086;85;21009;-68
2022/01/30 06:46:58;;;;;;;13.87;6.70;;;;;;;-3.22;100.00;98153.69;1688540;82;22431;-67
2022/01/30 06:49:43;;;;;;;20.57;9.77;;;;;;;-3.19;100.00;98147.20;1685091;82;21069;-67
2022/01/30 06:52:12;;;;;;;13.62;6.30;;;;;;;-3.15;100.00;98131.29;1682112;85;21060;-67
2022/01/30 06:54:57;;;;;;;12.50;7.27;;;;;;;-3.16;100.00;98111.10;1685014;82;21120;-67
2022/01/30 06:57:45;;;;;;;14.13;7.47;;;;;;;-3.10;100.00;98128.65;1680718;84;22205;-68
2022/01/30 07:00:30;;;;;;;24.30;8.97;;;;;;;-3.10;100.00;98126.07;1684972;83;21347;-66
2022/01/30 07:03:15;;;;;;;15.40;6.67;;;;;;;-3.10;100.00;98108.89;1718157;82;21073;-67
2022/01/30 07:05:46;;;;;;;14.83;7.28;;;;;;;-3.12;100.00;98103.35;1711095;82;21542;-68
2022/01/30 07:08:15;;;;;;;15.77;8.23;;;;;;;-3.13;100.00;98095.20;1677402;83;21057;-68
2022/01/30 07:10:41;;;;;;;12.93;7.15;;;;;;;-3.11;100.00;98101.18;1681627;83;21664;-67
2022/01/30 07:13:11;;;;;;;14.38;8.38;;;;;;;-3.11;100.00;98096.03;1688363;83;21070;-66
2022/01/30 07:15:37;;;;;;;8.88;5.15;;;;;;;-3.09;100.00;98083.98;1677565;85;21088;-67
2022/01/30 07:18:05;;;;;;;14.80;7.75;;;;;;;-3.08;100.00;98076.66;1678601;83;21072;-68
2022/01/30 07:20:31;;;;;;;18.87;8.90;;;;;;;-3.07;100.00;98075.80;1716340;82;21396;-67
2022/01/30 07:22:58;;;;;;;11.00;5.97;;;;;;;-3.04;100.00;98102.78;1712039;82;21045;-68
2022/01/30 07:25:25;;;;;;;13.60;7.20;;;;;;;-3.02;100.00;98077.86;1718118;81;21513;-68
2022/01/30 07:27:51;;;;;;;16.82;8.55;;;;;;;-3.01;100.00;98075.72;1712834;82;21077;-67
2022/01/30 07:30:17;;;;;;;15.48;8.10;;;;;;;-2.97;100.00;98070.91;1716432;82;21109;-68
2022/01/30 07:32:44;;;;;;;16.53;6.50;;;;;;;-2.89;100.00;98065.66;1712022;83;21049;-68
2022/01/30 07:35:11;;;;;;;9.17;4.87;;;;;;;-2.87;100.00;98060.05;1712101;83;21585;-68
2022/01/30 07:37:37;;;;;;;22.35;9.43;;;;;;;-2.83;100.00;98048.38;1713714;82;22127;-68
2022/01/30 07:40:05;;;;;;;8.40;4.87;;;;;;;-2.76;100.00;98059.41;1712237;82;21065;-66
2022/01/30 07:42:34;;;;;;;14.07;7.97;;;;;;;-2.69;100.00;98055.00;1712804;82;21082;-67
2022/01/30 07:45:04;;;;;;;13.72;7.00;;;;;;;-2.62;100.00;98052.77;1677414;83;21065;-67
2022/01/30 07:47:33;;;;;;;20.75;9.50;;;;;;;-2.58;100.00;98047.94;1679690;83;21097;-67
2022/01/30 07:50:00;;;;;;;20.30;8.88;;;;;;;-2.51;100.00;98047.40;1682677;83;21891;-67
2022/01/30 07:52:26;;;;;;;13.62;6.75;;;;;;;-2.47;100.00;98037.00;1693254;83;21564;-68
2022/01/30 07:54:52;;;;;;;12.58;6.92;;;;;;;-2.42;100.00;98044.20;1691824;83;21537;-69
2022/01/30 07:57:19;;;;;;;15.23;7.45;;;;;;;-2.37;100.00;98042.42;1682301;82;21072;-69
2022/01/30 07:59:46;;;;;;;12.75;6.78;;;;;;;-2.31;100.00;98036.28;1713626;83;21056;-68
2022/01/30 08:02:12;;;;;;;22.93;10.20;;;;;;;-2.27;100.00;98025.05;1714237;83;21498;-69
2022/01/30 08:04:40;;;;;;;18.32;7.62;;;;;;;-2.20;100.00;98025.78;1732333;81;21522;-70
2022/01/30 08:07:07;;;;;;;15.10;7.08;;;;;;;-2.15;100.00;98029.11;1703824;82;21049;-68
2022/01/30 08:09:33;;;;;;;10.20;6.22;;;;;;;-2.05;100.00;98016.88;1698872;82;21058;-69
2022/01/30 08:12:02;;;;;;;11.63;7.00;;;;;;;-1.96;100.00;98019.27;1696007;82;21077;-68
2022/01/30 08:14:29;;;;;;;16.37;8.15;;;;;;;-1.90;100.00;98017.41;1684862;85;21572;-68
2022/01/30 08:16:56;;;;;;;15.15;8.05;;;;;;;-1.82;100.00;98000.92;1721290;81;21109;-67
2022/01/30 08:19:24;;;;;;;16.77;7.85;;;;;;;-1.76;100.00;98008.54;1685117;84;21067;-70
2022/01/30 08:21:51;;;;;;;15.10;8.35;;;;;;;-1.71;100.00;98006.70;1720633;82;21109;-66
2022/01/30 08:24:22;;;;;;;13.00;7.05;;;;;;;-1.62;100.00;98012.11;1719665;83;21053;-66
2022/01/30 08:26:46;;;;;;;16.82;9.20;;;;;;;-1.55;100.00;98002.89;1684363;85;21113;-67
2022/01/30 08:29:13;;;;;;;25.70;11.75;;;;;;;-1.46;100.00;98007.45;1731459;82;21526;-68
2022/01/30 08:31:40;;;;;;;19.87;9.60;;;;;;;-1.40;100.00;97999.55;1744577;81;21086;-69
2022/01/30 08:34:07;;;;;;;19.10;7.75;;;;;;;-1.32;100.00;98005.41;1699778;82;21663;-68
2022/01/30 08:36:34;;;;;;;25.85;10.25;;;;;;;-1.24;100.00;97995.75;1684780;85;21009;-67
2022/01/30 08:39:01;;;;;;;18.87;9.68;;;;;;;-1.18;100.00;97993.00;1719429;83;21465;-66
2022/01/30 08:41:27;;;;;;;27.25;11.30;;;;;;;-1.13;100.00;97998.94;1719877;83;21065;-66
2022/01/30 08:43:54;;;;;;;23.25;9.73;;;;;;;-1.01;100.00;97996.91;1719658;82;21057;-65
2022/01/30 08:46:20;;;;;;;25.97;11.35;;;;;;;-0.87;100.00;97990.98;1720222;82;21065;-67
2022/01/30 08:48:48;;;;;;;20.43;10.48;;;;;;;-0.73;100.00;97988.88;1743541;82;21582;-67
2022/01/30 08:51:15;;;;;;;15.90;7.62;;;;;;;-0.58;100.00;97975.15;1749383;82;21130;-66
2022/01/30 08:53:42;;;;;;;24.82;10.25;;;;;;;-0.40;100.00;97964.30;1748547;82;21081;-67
2022/01/30 08:56:08;;;;;;;18.90;7.87;;;;;;;-0.25;100.00;97965.19;1749629;82;21514;-65
2022/01/30 08:58:35;;;;;;;15.45;7.12;;;;;;;-0.10;100.00;97955.28;1713580;82;21581;-66
2022/01/30 09:01:02;;;;;;;18.70;8.10;;;;;;;0.10;100.00;97958.14;1713304;83;21053;-66
2022/01/30 09:03:28;;;;;;;9.30;5.50;;;;;;;0.25;100.00;97953.39;1713570;83;21108;-66
2022/01/30 09:05:56;;;;;;;16.50;8.35;;;;;;;0.36;100.00;97951.33;1730755;82;21081;-66
2022/01/30 09:08:22;;;;;;;12.88;6.65;;;;;;;0.50;100.00;97948.31;1749470;82;21050;-66
2022/01/30 09:10:49;;;;;;;10.70;5.65;;;;;;;0.60;100.00;97942.80;1749615;82;21042;-67
2022/01/30 09:13:18;;;;;;;12.15;6.40;;;;;;;0.73;100.00;97948.88;1713769;83;21079;-66
2022/01/30 09:15:45;;;;;;;8.85;5.58;;;;;;;0.84;100.00;97948.08;1713599;83;21141;-67
2022/01/30 09:18:12;;;;;;;13.35;6.17;;;;;;;0.89;100.00;97939.70;1713901;83;21053;-67
2022/01/30 09:20:42;;;;;;;16.95;5.95;;;;;;;0.99;100.00;97944.13;1701431;83;21025;-67
2022/01/30 09:23:10;;;;;;;12.45;5.75;;;;;;;1.37;100.00;97931.16;1711125;82;21049;-69
2022/01/30 09:25:41;;;;;;;14.90;6.80;;;;;;;1.62;100.00;97936.78;1692973;82;21064;-65
2022/01/30 09:28:07;;;;;;;7.95;4.78;;;;;;;1.85;100.00;97929.00;1709987;83;21116;-65
2022/01/30 09:30:35;;;;;;;10.03;5.85;;;;;;;2.02;100.00;97931.41;1709067;83;21580;-64
2022/01/30 09:33:02;;;;;;;12.73;6.50;;;;;;;2.07;100.00;97922.56;1710073;82;21104;-66
2022/01/30 09:35:29;;;;;;;9.70;5.30;;;;;;;1.99;100.00;97932.84;1710091;82;21056;-66
2022/01/30 09:37:57;;;;;;;16.87;8.33;;;;;;;1.97;100.00;97919.91;1702150;82;21139;-66
2022/01/30 09:40:24;;;;;;;9.63;5.17;;;;;;;2.11;100.00;97927.17;1736044;81;21558;-68
2022/01/30 09:42:50;;;;;;;12.73;5.60;;;;;;;2.24;100.00;97923.20;1739276;82;21530;-68
2022/01/30 09:45:22;;;;;;;9.58;5.15;;;;;;;2.41;100.00;97920.40;1723342;82;21053;-67
2022/01/30 09:47:50;;;;;;;10.70;4.65;;;;;;;2.50;100.00;97915.67;1719878;83;21058;-66
2022/01/30 09:50:17;;;;;;;7.72;4.87;;;;;;;2.61;100.00;97916.56;1720036;82;21113;-66
2022/01/30 09:52:45;;;;;;;8.65;4.33;;;;;;;2.72;100.00;97913.08;1686175;82;21877;-68
2022/01/30 09:55:12;;;;;;;10.72;5.33;;;;;;;2.93;100.00;97913.11;1739347;81;21080;-68
2022/01/30 09:57:40;;;;;;;12.50;7.05;;;;;;;3.10;100.00;97916.29;1732810;81;21707;-70
2022/01/30 10:00:08;;;;;;;8.78;4.12;;;;;;;3.26;100.00;97919.09;1743301;81;21025;-69
2022/01/30 10:02:35;;;;;;;11.38;4.97;;;;;;;3.45;100.00;97916.10;1738270;81;21509;-66
2022/01/30 10:05:03;;;;;;;13.55;6.20;;;;;;;3.67;100.00;97911.23;1730952;81;21511;-68
2022/01/30 10:07:55;;;;;;;8.55;5.00;;;;;;;4.04;100.00;97914.78;1695688;83;21123;-68
2022/01/30 10:10:17;;;;;;;8.73;4.60;;;;;;;4.58;100.00;97913.13;1707815;82;21556;-67
2022/01/30 10:13:09;;;;;;;10.95;5.72;;;;;;;4.95;100.00;97912.63;1708898;82;21518;-67
2022/01/30 10:16:04;;;;;;;10.60;4.00;;;;;;;5.03;100.00;97907.86;1722102;82;21047;-68
2022/01/30 10:18:33;;;;;;;18.67;5.80;;;;;;;4.87;100.00;97901.25;1688656;84;21214;-68
2022/01/30 10:21:00;;;;;;;10.65;5.78;;;;;;;4.56;100.00;97909.73;1668141;83;22049;-67
2022/01/30 10:23:36;;;;;;;9.23;4.40;;;;;;;4.25;100.00;97905.96;1663228;82;21133;-68
2022/01/30 10:26:08;;;;;;;9.75;5.60;;;;;;;4.15;100.00;97911.23;1717105;82;21040;-67
2022/01/30 10:28:33;;;;;;;9.40;4.17;;;;;;;4.09;100.00;97908.44;1709128;82;21104;-66
2022/01/30 10:31:05;;;;;;;9.65;4.87;;;;;;;3.93;100.00;97912.23;1703208;83;21045;-64
2022/01/30 10:33:51;;;;;;;9.18;4.72;;;;;;;3.85;100.00;97910.41;1704674;82;21069;-66
2022/01/30 10:36:24;;;;;;;7.72;4.28;;;;;;;3.77;100.00;97904.27;1710484;82;21084;-67
2022/01/30 10:39:14;;;;;;;11.60;4.90;;;;;;;3.76;100.00;97896.52;1722577;82;21089;-67
2022/01/30 10:41:45;;;;;;;13.50;6.90;;;;;;;3.81;100.00;97905.42;1710169;82;20999;-66
2022/01/30 10:44:11;;;;;;;11.15;4.17;;;;;;;3.74;100.00;97890.06;1712976;82;21923;-67
2022/01/30 10:46:43;;;;;;;9.15;4.62;;;;;;;3.67;100.00;97891.72;1714233;82;21633;-67
2022/01/30 10:49:21;;;;;;;11.88;5.55;;;;;;;3.63;100.00;97895.36;1693953;83;21093;-66
2022/01/30 10:51:59;;;;;;;9.05;4.08;;;;;;;3.44;100.00;97897.48;1682054;83;21060;-67
2022/01/30 10:54:33;;;;;;;12.82;5.22;;;;;;;3.42;100.00;97890.19;1698586;83;21101;-67
2022/01/30 10:57:06;;;;;;;10.93;5.85;;;;;;;3.32;100.00;97896.72;1688046;83;21230;-67
2022/01/30 10:59:34;;;;;;;9.70;5.12;;;;;;;3.29;100.00;97885.13;1678063;84;21114;-68
2022/01/30 11:02:16;;;;;;;13.62;6.70;;;;;;;3.26;100.00;97886.58;1681425;84;21576;-67
2022/01/30 11:04:46;;;;;;;12.28;6.10;;;;;;;3.17;100.00;97878.70;1685585;84;21062;-68
2022/01/30 11:07:16;;;;;;;11.78;6.08;;;;;;;3.12;100.00;97875.00;1698506;84;21089;-67
2022/01/30 11:10:01;;;;;;;12.30;6.55;;;;;;;3.12;100.00;97869.80;1677477;85;21235;-68
2022/01/30 11:12:34;;;;;;;12.82;7.37;;;;;;;3.15;100.00;97871.42;1682249;84;21598;-68
2022/01/30 11:15:05;;;;;;;12.95;5.83;;;;;;;3.13;100.00;97871.50;1676588;85;21090;-67
2022/01/30 11:17:24;;;;;;;19.17;8.58;;;;;;;3.13;100.00;97867.61;1680199;84;21046;-67
2022/01/30 11:19:53;;;;;;;16.20;6.05;;;;;;;3.11;100.00;97870.72;1684449;83;21553;-68
2022/01/30 11:22:22;;;;;;;16.52;8.88;;;;;;;3.10;100.00;97872.08;1701640;84;21150;-68
2022/01/30 11:25:03;;;;;;;13.70;6.90;;;;;;;3.12;100.00;97868.50;1685371;83;21076;-68
2022/01/30 11:27:31;;;;;;;12.00;6.05;;;;;;;3.12;100.00;97860.70;1748037;82;22331;-68
2022/01/30 11:29:58;;;;;;;17.48;8.45;;;;;;;3.18;100.00;97871.77;1726369;82;22017;-69
2022/01/30 11:32:26;;;;;;;9.43;4.53;;;;;;;3.17;100.00;97868.77;1723933;81;21536;-70
2022/01/30 11:34:53;;;;;;;10.58;5.50;;;;;;;3.20;100.00;97864.72;1733743;82;21112;-69
2022/01/30 11:37:21;;;;;;;17.17;7.10;;;;;;;3.29;100.00;97864.31;1749903;82;21056;-69
2022/01/30 11:39:52;;;;;;;11.48;4.65;;;;;;;3.37;100.00;97867.44;1672730;83;21089;-70
2022/01/30 11:42:25;;;;;;;17.12;7.40;;;;;;;3.61;100.00;97863.35;1701345;82;21041;-69
2022/01/30 11:45:13;;;;;;;12.78;6.33;;;;;;;3.85;100.00;97861.41;1711437;82;21096;-69
2022/01/30 11:48:00;;;;;;;10.03;5.45;;;;;;;3.94;100.00;97856.61;1705879;82;21150;-69
2022/01/30 11:50:26;;;;;;;17.65;8.03;;;;;;;4.03;100.00;97844.09;1701584;82;21086;-69
2022/01/30 11:53:00;;;;;;;15.90;6.10;;;;;;;4.08;100.00;97853.83;1718978;82;21636;-69
2022/01/30 11:55:57;;;;;;;11.40;4.60;;;;;;;4.12;100.00;97847.56;1708201;82;21128;-70
2022/01/30 11:58:49;;;;;;;14.45;6.17;;;;;;;4.17;100.00;97842.97;1716050;82;21684;-68
2022/01/30 12:01:35;;;;;;;12.15;5.92;;;;;;;4.19;100.00;97848.95;1742995;82;21127;-69
2022/01/30 12:04:00;;;;;;;8.53;3.60;;;;;;;4.17;100.00;97833.86;1717439;82;21101;-70
2022/01/30 12:06:31;;;;;;;13.20;6.05;;;;;;;4.22;99.18;97835.77;1742173;82;21288;-69
2022/01/30 12:09:05;;;;;;;11.90;5.58;;;;;;;4.20;100.00;97831.09;1732793;80;21515;-69
2022/01/30 12:11:40;;;;;;;9.30;4.45;;;;;;;4.15;100.00;97833.08;1682833;83;22063;-69
2022/01/30 12:14:11;;;;;;;15.98;7.00;;;;;;;4.12;98.93;97834.54;1731682;81;21537;-68
2022/01/30 12:16:47;;;;;;;15.18;5.12;;;;;;;4.14;100.00;97832.68;1745902;81;21076;-69
2022/01/30 12:19:33;;;;;;;13.75;4.00;;;;;;;4.16;98.70;97836.05;1742533;81;21112;-69
2022/01/30 12:22:20;;;;;;;12.47;5.50;;;;;;;4.15;98.26;97836.98;1741752;82;21026;-69
2022/01/30 12:24:49;;;;;;;16.75;5.47;;;;;;;4.07;100.00;97833.45;1727937;82;21065;-70
2022/01/30 12:27:16;;;;;;;13.98;4.40;;;;;;;4.02;97.83;97833.27;1719875;83;21526;-69
2022/01/30 12:29:46;;;;;;;12.23;5.15;;;;;;;3.92;96.27;97837.61;1719490;83;21018;-68
2022/01/30 12:32:27;;;;;;;12.70;4.05;;;;;;;3.86;98.91;97836.58;1719898;83;21076;-68
2022/01/30 12:35:03;;;;;;;12.20;3.72;;;;;;;3.84;96.07;97842.31;1692980;82;21073;-69